sensor_id;sensor_type;location;lat;lon;timestamp;P1;durP1;ratioP1;P2;durP2;ratioP2
49572;SDS011;35476;52.466;13.364;2022-09-09T00:09:28;29.40;;;19.60;;
49572;SDS011;35476;52.466;13.364;2022-09-09T00:11:57;438.58;;;68.78;;
49572;SDS011;35476;52.466;13.364;2022-09-09T00:17:12;128.20;;;31.33;;
49572;SDS011;35476;52.466;13.364;2022-09-09T00:19:44;37.30;;;25.05;;
49572;SDS011;35476;52.466;13.364;2022-09-09T00:22:18;163.43;;;47.97;;
49572;SDS011;35476;52.466;13.364;2022-09-09T00:24:54;57.42;;;33.33;;
49572;SDS011;35476;52.466;13.364;2022-09-09T00:27:23;39.67;;;28.40;;
49572;SDS011;35476;52.466;13.364;2022-09-09T00:32:27;50.10;;;29.80;;
49572;SDS011;35476;52.466;13.364;2022-09-09T00:35:04;68.75;;;35.67;;
49572;SDS011;35476;52.466;13.364;2022-09-09T00:37:37;38.60;;;26.83;;
49572;SDS011;35476;52.466;13.364;2022-09-09T00:40:11;49.80;;;30.15;;
49572;SDS011;35476;52.466;13.364;2022-09-09T00:42:42;37.75;;;24.42;;
49572;SDS011;35476;52.466;13.364;2022-09-09T00:47:54;60.08;;;32.88;;
49572;SDS011;35476;52.466;13.364;2022-09-09T00:55:42;49.03;;;29.35;;
49572;SDS011;35476;52.466;13.364;2022-09-09T00:58:09;60.75;;;33.00;;
49572;SDS011;35476;52.466;13.364;2022-09-09T01:00:44;49.83;;;30.58;;
49572;SDS011;35476;52.466;13.364;2022-09-09T01:03:19;46.40;;;29.30;;
49572;SDS011;35476;52.466;13.364;2022-09-09T01:10:56;37.50;;;25.75;;
49572;SDS011;35476;52.466;13.364;2022-09-09T01:13:30;31.25;;;23.25;;
49572;SDS011;35476;52.466;13.364;2022-09-09T01:15:56;40.03;;;24.83;;
49572;SDS011;35476;52.466;13.364;2022-09-09T01:18:23;54.75;;;32.80;;
49572;SDS011;35476;52.466;13.364;2022-09-09T01:23:41;38.42;;;25.02;;
49572;SDS011;35476;52.466;13.364;2022-09-09T01:26:18;54.38;;;28.98;;
49572;SDS011;35476;52.466;13.364;2022-09-09T01:28:48;63.75;;;30.83;;
49572;SDS011;35476;52.466;13.364;2022-09-09T01:31:22;50.22;;;26.23;;
49572;SDS011;35476;52.466;13.364;2022-09-09T01:36:16;44.50;;;26.93;;
49572;SDS011;35476;52.466;13.364;2022-09-09T01:38:42;35.45;;;25.40;;
49572;SDS011;35476;52.466;13.364;2022-09-09T01:41:07;53.93;;;31.47;;
49572;SDS011;35476;52.466;13.364;2022-09-09T01:43:32;35.07;;;22.77;;
49572;SDS011;35476;52.466;13.364;2022-09-09T01:45:59;38.87;;;23.57;;
49572;SDS011;35476;52.466;13.364;2022-09-09T01:48:25;44.35;;;24.70;;
49572;SDS011;35476;52.466;13.364;2022-09-09T01:50:51;40.55;;;23.90;;
49572;SDS011;35476;52.466;13.364;2022-09-09T01:53:17;34.40;;;21.67;;
49572;SDS011;35476;52.466;13.364;2022-09-09T01:55:45;31.05;;;20.92;;
49572;SDS011;35476;52.466;13.364;2022-09-09T02:00:51;398.13;;;56.67;;
49572;SDS011;35476;52.466;13.364;2022-09-09T02:03:25;26.77;;;15.27;;
49572;SDS011;35476;52.466;13.364;2022-09-09T02:21:11;50.30;;;29.47;;
49572;SDS011;35476;52.466;13.364;2022-09-09T02:23:38;41.17;;;25.48;;
49572;SDS011;35476;52.466;13.364;2022-09-09T02:26:04;38.50;;;25.25;;
49572;SDS011;35476;52.466;13.364;2022-09-09T02:28:31;43.63;;;26.73;;
49572;SDS011;35476;52.466;13.364;2022-09-09T02:30:57;37.28;;;24.50;;
49572;SDS011;35476;52.466;13.364;2022-09-09T02:33:24;41.55;;;25.35;;
49572;SDS011;35476;52.466;13.364;2022-09-09T02:35:51;36.22;;;22.63;;
49572;SDS011;35476;52.466;13.364;2022-09-09T02:38:17;45.75;;;28.23;;
49572;SDS011;35476;52.466;13.364;2022-09-09T02:40:44;42.47;;;26.25;;
49572;SDS011;35476;52.466;13.364;2022-09-09T02:43:10;33.75;;;23.35;;
49572;SDS011;35476;52.466;13.364;2022-09-09T02:45:43;41.38;;;28.38;;
49572;SDS011;35476;52.466;13.364;2022-09-09T02:51:06;37.03;;;25.85;;
49572;SDS011;35476;52.466;13.364;2022-09-09T02:53:47;42.22;;;26.23;;
49572;SDS011;35476;52.466;13.364;2022-09-09T02:56:16;30.38;;;21.80;;
49572;SDS011;35476;52.466;13.364;2022-09-09T02:58:43;116.22;;;39.92;;
49572;SDS011;35476;52.466;13.364;2022-09-09T03:01:08;33.65;;;21.92;;
49572;SDS011;35476;52.466;13.364;2022-09-09T03:03:34;34.03;;;23.50;;
49572;SDS011;35476;52.466;13.364;2022-09-09T03:05:59;40.92;;;26.88;;
49572;SDS011;35476;52.466;13.364;2022-09-09T03:08:24;38.53;;;26.23;;
49572;SDS011;35476;52.466;13.364;2022-09-09T03:10:50;47.27;;;29.73;;
49572;SDS011;35476;52.466;13.364;2022-09-09T03:13:15;36.83;;;24.93;;
49572;SDS011;35476;52.466;13.364;2022-09-09T03:15:40;41.08;;;27.02;;
49572;SDS011;35476;52.466;13.364;2022-09-09T03:18:06;37.70;;;24.88;;
49572;SDS011;35476;52.466;13.364;2022-09-09T03:20:31;45.77;;;27.97;;
49572;SDS011;35476;52.466;13.364;2022-09-09T03:22:56;40.28;;;25.90;;
49572;SDS011;35476;52.466;13.364;2022-09-09T03:25:22;38.55;;;25.70;;
49572;SDS011;35476;52.466;13.364;2022-09-09T03:27:51;37.33;;;25.67;;
49572;SDS011;35476;52.466;13.364;2022-09-09T03:30:19;29.23;;;22.65;;
49572;SDS011;35476;52.466;13.364;2022-09-09T03:32:44;28.33;;;21.63;;
49572;SDS011;35476;52.466;13.364;2022-09-09T03:35:09;35.47;;;22.93;;
49572;SDS011;35476;52.466;13.364;2022-09-09T03:37:35;29.85;;;22.15;;
49572;SDS011;35476;52.466;13.364;2022-09-09T03:40:00;30.37;;;21.97;;
49572;SDS011;35476;52.466;13.364;2022-09-09T03:42:25;38.72;;;22.65;;
49572;SDS011;35476;52.466;13.364;2022-09-09T03:44:51;25.65;;;20.23;;
49572;SDS011;35476;52.466;13.364;2022-09-09T03:47:17;34.05;;;25.75;;
49572;SDS011;35476;52.466;13.364;2022-09-09T03:49:42;33.70;;;24.48;;
49572;SDS011;35476;52.466;13.364;2022-09-09T03:52:08;38.27;;;26.23;;
49572;SDS011;35476;52.466;13.364;2022-09-09T03:54:33;34.75;;;23.25;;
49572;SDS011;35476;52.466;13.364;2022-09-09T03:56:59;30.98;;;21.77;;
49572;SDS011;35476;52.466;13.364;2022-09-09T03:59:24;30.57;;;22.60;;
49572;SDS011;35476;52.466;13.364;2022-09-09T04:01:50;32.80;;;20.73;;
49572;SDS011;35476;52.466;13.364;2022-09-09T04:04:16;27.20;;;20.73;;
49572;SDS011;35476;52.466;13.364;2022-09-09T04:06:41;28.67;;;20.53;;
49572;SDS011;35476;52.466;13.364;2022-09-09T04:09:06;23.08;;;20.48;;
49572;SDS011;35476;52.466;13.364;2022-09-09T04:11:31;37.03;;;24.60;;
49572;SDS011;35476;52.466;13.364;2022-09-09T04:13:56;45.80;;;29.23;;
49572;SDS011;35476;52.466;13.364;2022-09-09T04:16:21;44.93;;;29.17;;
49572;SDS011;35476;52.466;13.364;2022-09-09T04:18:47;44.53;;;30.40;;
49572;SDS011;35476;52.466;13.364;2022-09-09T04:21:12;36.35;;;28.95;;
49572;SDS011;35476;52.466;13.364;2022-09-09T04:23:38;30.45;;;23.10;;
49572;SDS011;35476;52.466;13.364;2022-09-09T04:26:03;28.42;;;24.23;;
49572;SDS011;35476;52.466;13.364;2022-09-09T04:28:30;38.10;;;26.02;;
49572;SDS011;35476;52.466;13.364;2022-09-09T04:30:56;41.25;;;28.58;;
49572;SDS011;35476;52.466;13.364;2022-09-09T04:33:24;48.83;;;33.25;;
49572;SDS011;35476;52.466;13.364;2022-09-09T04:35:52;56.80;;;32.35;;
49572;SDS011;35476;52.466;13.364;2022-09-09T04:38:19;40.67;;;28.55;;
49572;SDS011;35476;52.466;13.364;2022-09-09T04:40:47;40.75;;;26.40;;
49572;SDS011;35476;52.466;13.364;2022-09-09T04:43:12;35.67;;;25.52;;
49572;SDS011;35476;52.466;13.364;2022-09-09T04:45:39;34.65;;;25.95;;
49572;SDS011;35476;52.466;13.364;2022-09-09T04:48:05;27.77;;;21.65;;
49572;SDS011;35476;52.466;13.364;2022-09-09T04:50:30;38.92;;;26.85;;
49572;SDS011;35476;52.466;13.364;2022-09-09T04:52:56;35.28;;;25.90;;
49572;SDS011;35476;52.466;13.364;2022-09-09T04:55:24;32.08;;;24.17;;
49572;SDS011;35476;52.466;13.364;2022-09-09T04:57:49;35.07;;;24.67;;
49572;SDS011;35476;52.466;13.364;2022-09-09T05:00:14;32.33;;;22.47;;
49572;SDS011;35476;52.466;13.364;2022-09-09T05:02:40;24.98;;;20.75;;
49572;SDS011;35476;52.466;13.364;2022-09-09T05:05:06;29.92;;;22.95;;
49572;SDS011;35476;52.466;13.364;2022-09-09T05:07:33;25.38;;;21.75;;
49572;SDS011;35476;52.466;13.364;2022-09-09T05:09:58;25.87;;;21.67;;
49572;SDS011;35476;52.466;13.364;2022-09-09T05:12:23;28.40;;;21.48;;
49572;SDS011;35476;52.466;13.364;2022-09-09T05:14:50;25.67;;;18.58;;
49572;SDS011;35476;52.466;13.364;2022-09-09T05:17:15;29.38;;;20.75;;
49572;SDS011;35476;52.466;13.364;2022-09-09T05:19:41;23.30;;;20.13;;
49572;SDS011;35476;52.466;13.364;2022-09-09T05:22:06;22.60;;;18.02;;
49572;SDS011;35476;52.466;13.364;2022-09-09T05:24:32;24.00;;;17.60;;
49572;SDS011;35476;52.466;13.364;2022-09-09T05:26:58;19.38;;;17.30;;
49572;SDS011;35476;52.466;13.364;2022-09-09T05:29:24;19.63;;;15.88;;
49572;SDS011;35476;52.466;13.364;2022-09-09T05:31:50;20.30;;;15.70;;
49572;SDS011;35476;52.466;13.364;2022-09-09T05:34:15;17.83;;;15.90;;
49572;SDS011;35476;52.466;13.364;2022-09-09T05:36:40;16.97;;;15.20;;
49572;SDS011;35476;52.466;13.364;2022-09-09T05:39:05;19.97;;;14.67;;
49572;SDS011;35476;52.466;13.364;2022-09-09T05:41:30;21.70;;;15.60;;
49572;SDS011;35476;52.466;13.364;2022-09-09T05:43:56;18.33;;;13.95;;
49572;SDS011;35476;52.466;13.364;2022-09-09T05:46:24;20.60;;;14.52;;
49572;SDS011;35476;52.466;13.364;2022-09-09T05:48:50;16.83;;;13.23;;
49572;SDS011;35476;52.466;13.364;2022-09-09T05:51:17;25.10;;;15.60;;
49572;SDS011;35476;52.466;13.364;2022-09-09T05:53:43;15.48;;;12.68;;
49572;SDS011;35476;52.466;13.364;2022-09-09T05:56:09;16.00;;;11.77;;
49572;SDS011;35476;52.466;13.364;2022-09-09T05:58:35;15.65;;;11.75;;
49572;SDS011;35476;52.466;13.364;2022-09-09T06:01:08;18.30;;;11.13;;
49572;SDS011;35476;52.466;13.364;2022-09-09T06:06:00;13.80;;;11.05;;
49572;SDS011;35476;52.466;13.364;2022-09-09T06:08:26;16.33;;;10.57;;
49572;SDS011;35476;52.466;13.364;2022-09-09T06:10:51;13.77;;;9.55;;
49572;SDS011;35476;52.466;13.364;2022-09-09T06:13:17;12.48;;;10.00;;
49572;SDS011;35476;52.466;13.364;2022-09-09T06:15:49;15.32;;;8.82;;
49572;SDS011;35476;52.466;13.364;2022-09-09T06:18:14;10.93;;;9.52;;
49572;SDS011;35476;52.466;13.364;2022-09-09T06:20:42;11.60;;;10.40;;
49572;SDS011;35476;52.466;13.364;2022-09-09T06:23:08;13.73;;;11.40;;
49572;SDS011;35476;52.466;13.364;2022-09-09T06:25:33;14.77;;;9.10;;
49572;SDS011;35476;52.466;13.364;2022-09-09T06:27:59;11.02;;;9.20;;
49572;SDS011;35476;52.466;13.364;2022-09-09T06:30:24;8.87;;;7.97;;
49572;SDS011;35476;52.466;13.364;2022-09-09T06:32:49;10.17;;;9.27;;
49572;SDS011;35476;52.466;13.364;2022-09-09T06:35:16;10.55;;;8.07;;
49572;SDS011;35476;52.466;13.364;2022-09-09T06:37:44;13.80;;;8.13;;
49572;SDS011;35476;52.466;13.364;2022-09-09T06:40:09;21.83;;;11.63;;
49572;SDS011;35476;52.466;13.364;2022-09-09T06:42:35;16.58;;;10.05;;
49572;SDS011;35476;52.466;13.364;2022-09-09T06:45:00;9.40;;;6.93;;
49572;SDS011;35476;52.466;13.364;2022-09-09T06:47:25;11.15;;;5.25;;
49572;SDS011;35476;52.466;13.364;2022-09-09T06:49:52;13.95;;;6.35;;
49572;SDS011;35476;52.466;13.364;2022-09-09T06:52:17;11.85;;;6.50;;
49572;SDS011;35476;52.466;13.364;2022-09-09T06:54:43;4.90;;;3.85;;
49572;SDS011;35476;52.466;13.364;2022-09-09T06:57:08;5.35;;;3.63;;
49572;SDS011;35476;52.466;13.364;2022-09-09T06:59:33;6.53;;;3.83;;
49572;SDS011;35476;52.466;13.364;2022-09-09T07:01:59;5.00;;;2.83;;
49572;SDS011;35476;52.466;13.364;2022-09-09T07:04:24;4.00;;;2.50;;
49572;SDS011;35476;52.466;13.364;2022-09-09T07:06:50;5.35;;;3.30;;
49572;SDS011;35476;52.466;13.364;2022-09-09T07:09:17;5.22;;;2.70;;
49572;SDS011;35476;52.466;13.364;2022-09-09T07:11:46;5.25;;;2.88;;
49572;SDS011;35476;52.466;13.364;2022-09-09T07:14:12;4.22;;;2.35;;
49572;SDS011;35476;52.466;13.364;2022-09-09T07:16:41;9.30;;;2.25;;
49572;SDS011;35476;52.466;13.364;2022-09-09T07:19:06;7.03;;;2.13;;
49572;SDS011;35476;52.466;13.364;2022-09-09T07:21:32;6.78;;;2.00;;
49572;SDS011;35476;52.466;13.364;2022-09-09T07:23:58;4.25;;;2.20;;
49572;SDS011;35476;52.466;13.364;2022-09-09T07:26:25;4.18;;;2.03;;
49572;SDS011;35476;52.466;13.364;2022-09-09T07:28:50;6.18;;;1.90;;
49572;SDS011;35476;52.466;13.364;2022-09-09T07:31:20;4.15;;;1.95;;
49572;SDS011;35476;52.466;13.364;2022-09-09T07:33:46;4.28;;;1.88;;
49572;SDS011;35476;52.466;13.364;2022-09-09T07:36:16;8.48;;;1.90;;
49572;SDS011;35476;52.466;13.364;2022-09-09T07:38:46;4.53;;;1.35;;
49572;SDS011;35476;52.466;13.364;2022-09-09T07:41:16;4.60;;;1.67;;
49572;SDS011;35476;52.466;13.364;2022-09-09T07:43:43;6.00;;;1.92;;
49572;SDS011;35476;52.466;13.364;2022-09-09T07:46:09;3.38;;;1.20;;
49572;SDS011;35476;52.466;13.364;2022-09-09T07:48:34;6.55;;;1.58;;
49572;SDS011;35476;52.466;13.364;2022-09-09T07:51:19;4.90;;;1.80;;
49572;SDS011;35476;52.466;13.364;2022-09-09T07:53:46;5.60;;;1.60;;
49572;SDS011;35476;52.466;13.364;2022-09-09T07:56:13;3.50;;;1.98;;
49572;SDS011;35476;52.466;13.364;2022-09-09T07:58:39;8.18;;;1.27;;
49572;SDS011;35476;52.466;13.364;2022-09-09T08:01:12;6.53;;;2.00;;
49572;SDS011;35476;52.466;13.364;2022-09-09T08:03:38;4.82;;;1.73;;
49572;SDS011;35476;52.466;13.364;2022-09-09T08:06:03;2.72;;;1.10;;
49572;SDS011;35476;52.466;13.364;2022-09-09T08:08:29;6.47;;;1.25;;
49572;SDS011;35476;52.466;13.364;2022-09-09T08:11:01;5.65;;;1.40;;
49572;SDS011;35476;52.466;13.364;2022-09-09T08:13:26;7.32;;;1.77;;
49572;SDS011;35476;52.466;13.364;2022-09-09T08:15:52;7.38;;;2.88;;
49572;SDS011;35476;52.466;13.364;2022-09-09T08:18:17;8.43;;;2.00;;
49572;SDS011;35476;52.466;13.364;2022-09-09T08:20:42;3.53;;;1.57;;
49572;SDS011;35476;52.466;13.364;2022-09-09T08:23:07;7.88;;;2.00;;
49572;SDS011;35476;52.466;13.364;2022-09-09T08:25:33;3.80;;;1.60;;
49572;SDS011;35476;52.466;13.364;2022-09-09T08:27:59;10.70;;;2.10;;
49572;SDS011;35476;52.466;13.364;2022-09-09T08:30:24;4.13;;;1.60;;
49572;SDS011;35476;52.466;13.364;2022-09-09T08:32:49;3.70;;;1.80;;
49572;SDS011;35476;52.466;13.364;2022-09-09T08:35:16;4.43;;;1.70;;
49572;SDS011;35476;52.466;13.364;2022-09-09T08:37:42;4.03;;;1.70;;
49572;SDS011;35476;52.466;13.364;2022-09-09T08:40:22;5.43;;;1.90;;
49572;SDS011;35476;52.466;13.364;2022-09-09T08:42:51;5.35;;;2.00;;
49572;SDS011;35476;52.466;13.364;2022-09-09T08:45:19;4.45;;;2.20;;
49572;SDS011;35476;52.466;13.364;2022-09-09T08:47:55;5.85;;;2.22;;
49572;SDS011;35476;52.466;13.364;2022-09-09T08:50:27;6.55;;;2.17;;
49572;SDS011;35476;52.466;13.364;2022-09-09T08:57:43;8.13;;;2.17;;
49572;SDS011;35476;52.466;13.364;2022-09-09T09:00:10;8.60;;;2.40;;
49572;SDS011;35476;52.466;13.364;2022-09-09T09:05:23;4.82;;;2.22;;
49572;SDS011;35476;52.466;13.364;2022-09-09T09:07:59;4.15;;;1.90;;
49572;SDS011;35476;52.466;13.364;2022-09-09T09:12:57;4.53;;;2.70;;
49572;SDS011;35476;52.466;13.364;2022-09-09T09:15:23;4.85;;;1.85;;
49572;SDS011;35476;52.466;13.364;2022-09-09T09:17:49;2.92;;;1.50;;
49572;SDS011;35476;52.466;13.364;2022-09-09T09:20:15;6.45;;;1.48;;
49572;SDS011;35476;52.466;13.364;2022-09-09T09:22:48;7.30;;;2.03;;
49572;SDS011;35476;52.466;13.364;2022-09-09T09:25:18;3.47;;;1.55;;
49572;SDS011;35476;52.466;13.364;2022-09-09T09:30:41;6.82;;;2.10;;
49572;SDS011;35476;52.466;13.364;2022-09-09T09:33:50;8.00;;;1.40;;
49572;SDS011;35476;52.466;13.364;2022-09-09T09:35:55;4.78;;;2.28;;
49572;SDS011;35476;52.466;13.364;2022-09-09T09:38:22;7.93;;;2.20;;
49572;SDS011;35476;52.466;13.364;2022-09-09T09:40:54;5.25;;;1.73;;
49572;SDS011;35476;52.466;13.364;2022-09-09T09:43:36;3.72;;;1.27;;
49572;SDS011;35476;52.466;13.364;2022-09-09T09:46:04;7.88;;;1.75;;
49572;SDS011;35476;52.466;13.364;2022-09-09T09:48:30;12.55;;;1.90;;
49572;SDS011;35476;52.466;13.364;2022-09-09T09:51:14;72.40;;;8.02;;
49572;SDS011;35476;52.466;13.364;2022-09-09T09:53:42;107.75;;;12.35;;
49572;SDS011;35476;52.466;13.364;2022-09-09T09:56:11;44.70;;;5.30;;
49572;SDS011;35476;52.466;13.364;2022-09-09T10:01:22;174.90;;;18.58;;
49572;SDS011;35476;52.466;13.364;2022-09-09T10:06:17;129.53;;;14.93;;
49572;SDS011;35476;52.466;13.364;2022-09-09T10:08:45;33.17;;;4.97;;
49572;SDS011;35476;52.466;13.364;2022-09-09T10:21:48;19.02;;;5.32;;
49572;SDS011;35476;52.466;13.364;2022-09-09T10:37:56;5.50;;;1.50;;
49572;SDS011;35476;52.466;13.364;2022-09-09T10:40:21;5.85;;;1.60;;
49572;SDS011;35476;52.466;13.364;2022-09-09T10:42:46;3.53;;;1.30;;
49572;SDS011;35476;52.466;13.364;2022-09-09T10:55:37;3.78;;;1.63;;
49572;SDS011;35476;52.466;13.364;2022-09-09T10:58:03;4.32;;;1.25;;
49572;SDS011;35476;52.466;13.364;2022-09-09T11:00:42;4.53;;;1.35;;
49572;SDS011;35476;52.466;13.364;2022-09-09T11:03:12;3.38;;;1.23;;
49572;SDS011;35476;52.466;13.364;2022-09-09T11:05:49;3.45;;;1.15;;
49572;SDS011;35476;52.466;13.364;2022-09-09T11:08:28;3.53;;;1.10;;
49572;SDS011;35476;52.466;13.364;2022-09-09T11:11:04;3.72;;;1.42;;
49572;SDS011;35476;52.466;13.364;2022-09-09T11:16:33;4.23;;;1.30;;
49572;SDS011;35476;52.466;13.364;2022-09-09T11:18:48;4.72;;;1.17;;
49572;SDS011;35476;52.466;13.364;2022-09-09T11:21:25;4.45;;;1.17;;
49572;SDS011;35476;52.466;13.364;2022-09-09T11:23:57;6.30;;;1.92;;
49572;SDS011;35476;52.466;13.364;2022-09-09T11:34:25;5.47;;;1.50;;
49572;SDS011;35476;52.466;13.364;2022-09-09T11:42:05;2.87;;;1.07;;
49572;SDS011;35476;52.466;13.364;2022-09-09T11:44:31;3.25;;;0.80;;
49572;SDS011;35476;52.466;13.364;2022-09-09T11:46:57;3.50;;;0.90;;
49572;SDS011;35476;52.466;13.364;2022-09-09T11:49:41;3.77;;;1.07;;
49572;SDS011;35476;52.466;13.364;2022-09-09T11:55:10;3.50;;;1.23;;
49572;SDS011;35476;52.466;13.364;2022-09-09T11:57:37;3.20;;;0.85;;
49572;SDS011;35476;52.466;13.364;2022-09-09T12:00:03;3.20;;;1.10;;
49572;SDS011;35476;52.466;13.364;2022-09-09T12:02:28;11.98;;;1.50;;
49572;SDS011;35476;52.466;13.364;2022-09-09T12:07:40;2.80;;;1.20;;
49572;SDS011;35476;52.466;13.364;2022-09-09T12:12:51;2.42;;;1.00;;
49572;SDS011;35476;52.466;13.364;2022-09-09T12:17:45;2.33;;;0.90;;
49572;SDS011;35476;52.466;13.364;2022-09-09T12:20:19;2.53;;;1.10;;
49572;SDS011;35476;52.466;13.364;2022-09-09T12:28:08;4.65;;;1.27;;
49572;SDS011;35476;52.466;13.364;2022-09-09T12:30:37;2.72;;;1.02;;
49572;SDS011;35476;52.466;13.364;2022-09-09T12:33:09;4.85;;;0.88;;
49572;SDS011;35476;52.466;13.364;2022-09-09T12:35:35;5.20;;;1.23;;
49572;SDS011;35476;52.466;13.364;2022-09-09T12:38:03;5.68;;;1.55;;
49572;SDS011;35476;52.466;13.364;2022-09-09T12:40:33;4.60;;;1.38;;
49572;SDS011;35476;52.466;13.364;2022-09-09T12:43:00;3.53;;;1.40;;
49572;SDS011;35476;52.466;13.364;2022-09-09T12:45:26;3.78;;;1.27;;
49572;SDS011;35476;52.466;13.364;2022-09-09T12:47:54;5.35;;;1.30;;
49572;SDS011;35476;52.466;13.364;2022-09-09T12:50:30;5.13;;;1.42;;
49572;SDS011;35476;52.466;13.364;2022-09-09T12:52:57;6.78;;;1.45;;
49572;SDS011;35476;52.466;13.364;2022-09-09T12:55:30;8.27;;;2.13;;
49572;SDS011;35476;52.466;13.364;2022-09-09T12:57:56;5.00;;;1.25;;
49572;SDS011;35476;52.466;13.364;2022-09-09T13:00:24;4.40;;;1.55;;
49572;SDS011;35476;52.466;13.364;2022-09-09T13:02:54;2.05;;;1.20;;
49572;SDS011;35476;52.466;13.364;2022-09-09T13:05:24;4.07;;;1.83;;
49572;SDS011;35476;52.466;13.364;2022-09-09T13:07:49;4.10;;;1.48;;
49572;SDS011;35476;52.466;13.364;2022-09-09T13:10:15;5.97;;;1.77;;
49572;SDS011;35476;52.466;13.364;2022-09-09T13:12:44;7.13;;;1.17;;
49572;SDS011;35476;52.466;13.364;2022-09-09T13:15:11;2.77;;;1.00;;
49572;SDS011;35476;52.466;13.364;2022-09-09T13:17:39;7.13;;;1.50;;
49572;SDS011;35476;52.466;13.364;2022-09-09T13:20:06;4.35;;;1.55;;
49572;SDS011;35476;52.466;13.364;2022-09-09T13:22:34;5.18;;;1.55;;
49572;SDS011;35476;52.466;13.364;2022-09-09T13:27:32;3.45;;;1.30;;
49572;SDS011;35476;52.466;13.364;2022-09-09T13:29:59;3.17;;;1.30;;
49572;SDS011;35476;52.466;13.364;2022-09-09T13:32:25;6.68;;;1.38;;
49572;SDS011;35476;52.466;13.364;2022-09-09T13:34:55;6.00;;;1.45;;
49572;SDS011;35476;52.466;13.364;2022-09-09T13:37:31;3.13;;;1.27;;
49572;SDS011;35476;52.466;13.364;2022-09-09T13:39:57;4.18;;;1.52;;
49572;SDS011;35476;52.466;13.364;2022-09-09T13:42:26;2.38;;;1.08;;
49572;SDS011;35476;52.466;13.364;2022-09-09T13:44:52;6.75;;;1.63;;
49572;SDS011;35476;52.466;13.364;2022-09-09T13:47:19;6.00;;;1.20;;
49572;SDS011;35476;52.466;13.364;2022-09-09T13:49:45;2.45;;;1.00;;
49572;SDS011;35476;52.466;13.364;2022-09-09T13:52:12;2.80;;;1.23;;
49572;SDS011;35476;52.466;13.364;2022-09-09T13:54:38;5.82;;;1.95;;
49572;SDS011;35476;52.466;13.364;2022-09-09T13:57:04;2.38;;;0.90;;
49572;SDS011;35476;52.466;13.364;2022-09-09T13:59:29;3.08;;;0.85;;
49572;SDS011;35476;52.466;13.364;2022-09-09T14:01:55;1.52;;;0.80;;
49572;SDS011;35476;52.466;13.364;2022-09-09T14:04:20;6.00;;;1.03;;
49572;SDS011;35476;52.466;13.364;2022-09-09T14:06:49;2.95;;;1.00;;
49572;SDS011;35476;52.466;13.364;2022-09-09T14:09:15;2.40;;;0.55;;
49572;SDS011;35476;52.466;13.364;2022-09-09T14:11:41;3.30;;;1.10;;
49572;SDS011;35476;52.466;13.364;2022-09-09T14:14:06;3.95;;;1.02;;
49572;SDS011;35476;52.466;13.364;2022-09-09T14:16:31;3.00;;;1.40;;
49572;SDS011;35476;52.466;13.364;2022-09-09T14:18:56;3.25;;;1.00;;
49572;SDS011;35476;52.466;13.364;2022-09-09T14:21:22;2.47;;;0.90;;
49572;SDS011;35476;52.466;13.364;2022-09-09T14:23:47;3.88;;;1.50;;
49572;SDS011;35476;52.466;13.364;2022-09-09T14:26:13;3.92;;;2.30;;
49572;SDS011;35476;52.466;13.364;2022-09-09T14:28:38;2.37;;;0.90;;
49572;SDS011;35476;52.466;13.364;2022-09-09T14:31:05;5.47;;;1.85;;
49572;SDS011;35476;52.466;13.364;2022-09-09T14:33:30;8.63;;;1.33;;
49572;SDS011;35476;52.466;13.364;2022-09-09T14:35:56;5.10;;;1.70;;
49572;SDS011;35476;52.466;13.364;2022-09-09T14:38:22;4.47;;;1.33;;
49572;SDS011;35476;52.466;13.364;2022-09-09T14:40:47;8.53;;;1.53;;
49572;SDS011;35476;52.466;13.364;2022-09-09T14:43:12;3.27;;;1.17;;
49572;SDS011;35476;52.466;13.364;2022-09-09T14:45:38;3.42;;;1.20;;
49572;SDS011;35476;52.466;13.364;2022-09-09T14:48:03;3.50;;;1.47;;
49572;SDS011;35476;52.466;13.364;2022-09-09T14:50:28;3.80;;;1.30;;
49572;SDS011;35476;52.466;13.364;2022-09-09T14:52:53;4.23;;;1.50;;
49572;SDS011;35476;52.466;13.364;2022-09-09T14:55:19;4.80;;;1.60;;
49572;SDS011;35476;52.466;13.364;2022-09-09T14:57:44;5.15;;;1.50;;
49572;SDS011;35476;52.466;13.364;2022-09-09T15:00:10;4.10;;;1.35;;
49572;SDS011;35476;52.466;13.364;2022-09-09T15:02:36;2.63;;;1.17;;
49572;SDS011;35476;52.466;13.364;2022-09-09T15:05:02;6.20;;;1.37;;
49572;SDS011;35476;52.466;13.364;2022-09-09T15:07:28;2.08;;;1.10;;
49572;SDS011;35476;52.466;13.364;2022-09-09T15:09:53;2.17;;;1.30;;
49572;SDS011;35476;52.466;13.364;2022-09-09T15:12:19;3.47;;;1.25;;
49572;SDS011;35476;52.466;13.364;2022-09-09T15:14:45;3.33;;;1.20;;
49572;SDS011;35476;52.466;13.364;2022-09-09T15:17:11;4.18;;;1.20;;
49572;SDS011;35476;52.466;13.364;2022-09-09T15:19:36;3.45;;;1.00;;
49572;SDS011;35476;52.466;13.364;2022-09-09T15:22:02;5.10;;;1.20;;
49572;SDS011;35476;52.466;13.364;2022-09-09T15:24:28;5.03;;;1.42;;
49572;SDS011;35476;52.466;13.364;2022-09-09T15:26:53;4.47;;;1.45;;
49572;SDS011;35476;52.466;13.364;2022-09-09T15:29:18;3.00;;;0.93;;
49572;SDS011;35476;52.466;13.364;2022-09-09T15:31:44;4.70;;;1.50;;
49572;SDS011;35476;52.466;13.364;2022-09-09T15:34:09;5.50;;;1.43;;
49572;SDS011;35476;52.466;13.364;2022-09-09T15:39:00;2.10;;;0.90;;
49572;SDS011;35476;52.466;13.364;2022-09-09T15:41:26;2.45;;;1.10;;
49572;SDS011;35476;52.466;13.364;2022-09-09T15:43:52;4.00;;;1.35;;
49572;SDS011;35476;52.466;13.364;2022-09-09T15:48:43;2.60;;;1.50;;
49572;SDS011;35476;52.466;13.364;2022-09-09T15:51:09;3.85;;;1.50;;
49572;SDS011;35476;52.466;13.364;2022-09-09T15:53:34;3.70;;;1.30;;
49572;SDS011;35476;52.466;13.364;2022-09-09T15:56:00;1.93;;;1.33;;
49572;SDS011;35476;52.466;13.364;2022-09-09T15:58:25;3.50;;;1.40;;
49572;SDS011;35476;52.466;13.364;2022-09-09T16:00:50;2.43;;;1.30;;
49572;SDS011;35476;52.466;13.364;2022-09-09T16:03:16;2.80;;;1.27;;
49572;SDS011;35476;52.466;13.364;2022-09-09T16:05:41;2.30;;;1.10;;
49572;SDS011;35476;52.466;13.364;2022-09-09T16:08:06;4.80;;;1.60;;
49572;SDS011;35476;52.466;13.364;2022-09-09T16:10:32;4.33;;;1.40;;
49572;SDS011;35476;52.466;13.364;2022-09-09T16:12:57;2.67;;;1.48;;
49572;SDS011;35476;52.466;13.364;2022-09-09T16:15:22;5.63;;;1.47;;
49572;SDS011;35476;52.466;13.364;2022-09-09T16:17:48;6.13;;;1.92;;
49572;SDS011;35476;52.466;13.364;2022-09-09T16:20:13;5.05;;;1.92;;
49572;SDS011;35476;52.466;13.364;2022-09-09T16:22:39;3.65;;;1.67;;
49572;SDS011;35476;52.466;13.364;2022-09-09T16:25:05;4.65;;;1.52;;
49572;SDS011;35476;52.466;13.364;2022-09-09T16:27:30;3.20;;;1.33;;
49572;SDS011;35476;52.466;13.364;2022-09-09T16:29:55;8.73;;;2.03;;
49572;SDS011;35476;52.466;13.364;2022-09-09T16:32:21;3.73;;;1.77;;
49572;SDS011;35476;52.466;13.364;2022-09-09T16:34:47;2.70;;;1.50;;
49572;SDS011;35476;52.466;13.364;2022-09-09T16:37:12;4.77;;;1.77;;
49572;SDS011;35476;52.466;13.364;2022-09-09T16:39:37;5.63;;;1.67;;
49572;SDS011;35476;52.466;13.364;2022-09-09T16:42:02;5.00;;;2.13;;
49572;SDS011;35476;52.466;13.364;2022-09-09T16:44:29;3.38;;;1.80;;
49572;SDS011;35476;52.466;13.364;2022-09-09T16:46:55;3.97;;;1.58;;
49572;SDS011;35476;52.466;13.364;2022-09-09T16:49:20;4.45;;;1.98;;
49572;SDS011;35476;52.466;13.364;2022-09-09T16:51:47;4.30;;;2.13;;